createdAt,value
2019-02-24T00:02:28.210Z,5.37
2019-02-24T00:05:00.599Z,5.07
2019-02-24T00:07:30.018Z,5.40
2019-02-24T00:10:00.555Z,4.90
2019-02-24T00:12:31.412Z,4.93
2019-02-24T00:15:04.365Z,5.13
2019-02-24T00:17:35.521Z,5.30
2019-02-24T00:20:05.982Z,5.20
2019-02-24T00:22:38.220Z,5.47
2019-02-24T00:25:07.547Z,5.07
2019-02-24T00:27:38.088Z,4.93
2019-02-24T00:30:09.192Z,4.80
2019-02-24T00:32:38.627Z,5.33
2019-02-24T00:35:08.934Z,4.80
2019-02-24T00:37:38.324Z,4.53
2019-02-24T00:40:07.906Z,4.57
2019-02-24T00:42:39.068Z,5.93
2019-02-24T00:45:08.700Z,4.97
2019-02-24T00:47:40.071Z,5.13
2019-02-24T00:50:11.304Z,4.87
2019-02-24T00:52:42.525Z,5.07
2019-02-24T00:55:12.023Z,4.97
2019-02-24T00:57:44.879Z,5.50
2019-02-24T01:00:15.253Z,5.13
2019-02-24T01:02:44.698Z,5.17
2019-02-24T01:05:15.952Z,4.73
2019-02-24T01:07:46.369Z,4.97
2019-02-24T01:10:15.904Z,5.23
2019-02-24T01:12:48.820Z,5.90
2019-02-24T01:15:19.198Z,6.17
2019-02-24T01:17:48.716Z,5.83
2019-02-24T01:20:21.586Z,5.83
2019-02-24T01:22:51.124Z,5.83
2019-02-24T01:25:22.245Z,5.27
2019-02-24T01:27:51.704Z,6.37
2019-02-24T01:30:22.287Z,5.40
2019-02-24T01:32:53.426Z,4.67
2019-02-24T01:35:22.865Z,5.37
2019-02-24T01:37:53.963Z,5.33
2019-02-24T01:40:24.374Z,5.30
2019-02-24T01:42:54.872Z,4.73
2019-02-24T01:45:24.260Z,5.23
2019-02-24T01:47:55.431Z,4.70
2019-02-24T01:50:27.300Z,4.47
2019-02-24T01:52:57.663Z,4.80
2019-02-24T01:55:27.001Z,4.30
2019-02-24T01:57:56.613Z,4.67
2019-02-24T02:00:27.879Z,4.47
2019-02-24T02:02:58.501Z,4.57
2019-02-24T02:05:29.881Z,5.00
2019-02-24T02:08:00.305Z,5.43
2019-02-24T02:10:31.430Z,4.70
2019-02-24T02:13:00.704Z,4.03
2019-02-24T02:15:29.964Z,4.30
2019-02-24T02:17:59.254Z,4.60
2019-02-24T02:20:28.504Z,4.40
2019-02-24T02:22:57.793Z,4.13
2019-02-24T02:25:27.201Z,4.53
2019-02-24T02:27:56.443Z,4.63
2019-02-24T02:30:26.692Z,4.40
2019-02-24T02:32:56.007Z,4.23
2019-02-24T02:35:25.263Z,4.30
2019-02-24T02:37:54.546Z,4.37
2019-02-24T02:40:23.803Z,4.43
2019-02-24T02:42:53.089Z,4.03
2019-02-24T02:45:22.339Z,5.00
2019-02-24T02:47:51.610Z,4.23
2019-02-24T02:50:21.194Z,5.53
2019-02-24T02:52:50.487Z,6.07
2019-02-24T02:55:19.760Z,8.50
2019-02-24T02:57:50.202Z,4.43
2019-02-24T03:00:35.786Z,4.63
2019-02-24T03:03:05.093Z,4.40
2019-02-24T03:05:34.362Z,4.57
2019-02-24T03:08:09.339Z,4.23
2019-02-24T03:10:38.598Z,23.17
2019-02-24T03:13:07.882Z,5.37
2019-02-24T03:15:37.136Z,4.33
2019-02-24T03:18:06.492Z,8.00
2019-02-24T03:20:35.769Z,7.57
2019-02-24T03:23:05.272Z,4.63
2019-02-24T03:25:34.553Z,4.87
2019-02-24T03:28:04.915Z,4.80
2019-02-24T03:30:34.211Z,6.53
2019-02-24T03:33:03.461Z,5.07
2019-02-24T03:35:32.719Z,9.80
2019-02-24T03:38:01.997Z,5.10
2019-02-24T03:40:31.356Z,5.83
2019-02-24T03:43:00.636Z,5.17
2019-02-24T03:45:29.918Z,9.73
2019-02-24T03:47:59.212Z,4.60
2019-02-24T03:50:28.501Z,5.27
2019-02-24T03:52:57.788Z,4.87
2019-02-24T03:55:27.063Z,5.00
2019-02-24T03:57:56.616Z,5.20
2019-02-24T04:00:25.899Z,5.57
2019-02-24T04:02:55.162Z,27.67
2019-02-24T04:05:24.472Z,14.20
2019-02-24T04:07:53.728Z,4.73
2019-02-24T04:10:23.007Z,6.27
2019-02-24T04:12:52.527Z,9.43
2019-02-24T04:15:21.803Z,11.73
2019-02-24T04:17:51.075Z,4.33
2019-02-24T04:20:20.346Z,14.67
2019-02-24T04:22:49.652Z,10.43
2019-02-24T04:25:18.969Z,5.07
2019-02-24T04:27:48.224Z,6.37
2019-02-24T04:30:17.503Z,5.30
2019-02-24T04:32:46.755Z,7.23
2019-02-24T04:35:16.253Z,15.53
2019-02-24T04:37:45.540Z,10.37
2019-02-24T04:40:14.803Z,6.60
2019-02-24T04:42:44.069Z,4.33
2019-02-24T04:45:13.327Z,4.93
2019-02-24T04:47:42.621Z,4.70
2019-02-24T04:50:11.887Z,5.03
2019-02-24T04:52:41.144Z,4.00
2019-02-24T04:55:10.446Z,4.17
2019-02-24T04:57:39.703Z,4.77
2019-02-24T05:00:09.274Z,4.20
2019-02-24T05:02:39.556Z,4.07
2019-02-24T05:05:10.326Z,4.07
2019-02-24T05:07:39.607Z,4.30
2019-02-24T05:10:08.865Z,4.57
2019-02-24T05:12:38.139Z,4.47
2019-02-24T05:15:07.552Z,4.00
2019-02-24T05:17:38.705Z,3.90
2019-02-24T05:20:08.102Z,4.47
2019-02-24T05:22:37.406Z,4.43
2019-02-24T05:25:06.969Z,4.50
2019-02-24T05:27:36.301Z,4.13
2019-02-24T05:30:05.999Z,4.50
2019-02-24T05:32:35.259Z,5.37
2019-02-24T05:35:04.565Z,3.93
2019-02-24T05:37:33.826Z,5.40
2019-02-24T05:40:03.281Z,5.10
2019-02-24T05:42:32.686Z,4.70
2019-02-24T05:45:01.986Z,4.23
2019-02-24T05:47:31.294Z,5.67
2019-02-24T05:50:00.548Z,4.20
2019-02-24T05:52:29.837Z,5.27
2019-02-24T05:54:59.088Z,3.93
2019-02-24T05:57:28.346Z,4.10
2019-02-24T05:59:57.626Z,4.70
2019-02-24T06:02:26.873Z,4.90
2019-02-24T06:04:56.162Z,5.13
2019-02-24T06:07:25.429Z,4.43
2019-02-24T06:09:54.689Z,4.43
2019-02-24T06:12:24.026Z,4.67
2019-02-24T06:14:53.272Z,3.90
2019-02-24T06:17:22.548Z,4.37
2019-02-24T06:19:51.853Z,4.57
2019-02-24T06:22:21.106Z,4.23
2019-02-24T06:24:50.372Z,4.83
2019-02-24T06:27:19.675Z,4.57
2019-02-24T06:29:49.157Z,5.17
2019-02-24T06:32:18.428Z,5.00
2019-02-24T06:34:47.682Z,5.07
2019-02-24T06:37:16.988Z,4.40
2019-02-24T06:39:46.251Z,4.67
2019-02-24T06:42:15.532Z,4.93
2019-02-24T06:44:45.919Z,4.03
2019-02-24T06:47:17.031Z,4.97
2019-02-24T06:49:47.397Z,4.33
2019-02-24T06:52:18.334Z,4.70
2019-02-24T06:54:47.619Z,4.97
2019-02-24T06:57:16.899Z,4.53
2019-02-24T06:59:46.192Z,4.47
2019-02-24T07:02:16.188Z,5.23
2019-02-24T07:04:45.437Z,4.60
2019-02-24T07:07:14.794Z,5.23
2019-02-24T07:09:44.081Z,4.43
2019-02-24T07:12:13.360Z,4.60
2019-02-24T07:14:44.654Z,5.37
2019-02-24T07:17:15.892Z,4.67
2019-02-24T07:19:45.332Z,4.53
2019-02-24T07:22:16.981Z,4.37
2019-02-24T07:24:49.380Z,4.67
2019-02-24T07:27:21.820Z,4.97
2019-02-24T07:29:51.516Z,5.03
2019-02-24T07:32:23.708Z,4.97
2019-02-24T07:34:53.060Z,4.33
2019-02-24T07:37:22.340Z,4.10
2019-02-24T07:39:51.672Z,4.30
2019-02-24T07:42:21.622Z,3.90
2019-02-24T07:44:50.923Z,3.93
2019-02-24T07:47:20.257Z,4.90
2019-02-24T07:49:49.886Z,4.10
2019-02-24T07:52:19.220Z,3.90
2019-02-24T07:54:48.588Z,4.60
2019-02-24T07:57:17.892Z,3.60
2019-02-24T07:59:48.243Z,3.80
2019-02-24T08:02:17.714Z,3.13
2019-02-24T08:04:46.968Z,4.53
2019-02-24T08:07:16.250Z,3.93
2019-02-24T08:09:47.411Z,3.27
2019-02-24T08:12:17.803Z,3.50
2019-02-24T08:14:47.493Z,3.30
2019-02-24T08:17:16.744Z,3.60
2019-02-24T08:19:46.115Z,3.13
2019-02-24T08:22:15.463Z,3.63
2019-02-24T08:24:44.792Z,3.50
2019-02-24T08:27:14.105Z,3.63
2019-02-24T08:29:43.424Z,3.87
2019-02-24T08:32:12.715Z,3.63
2019-02-24T08:34:42.026Z,3.60
2019-02-24T08:37:11.420Z,4.10
2019-02-24T08:39:40.675Z,4.33
2019-02-24T08:42:09.944Z,3.60
2019-02-24T08:44:39.227Z,3.57
2019-02-24T08:47:07.816Z,3.70
2019-02-24T08:49:37.101Z,3.10
2019-02-24T08:52:07.354Z,3.70
2019-02-24T08:54:37.190Z,3.73
2019-02-24T08:57:06.438Z,3.33
2019-02-24T08:59:35.701Z,3.27
2019-02-24T09:02:04.970Z,3.27
2019-02-24T09:04:34.225Z,3.47
2019-02-24T09:07:03.517Z,4.50
2019-02-24T09:09:32.820Z,3.10
2019-02-24T09:12:02.129Z,3.80
2019-02-24T09:14:31.432Z,5.97
2019-02-24T09:17:00.681Z,3.83
2019-02-24T09:19:29.956Z,3.27
2019-02-24T09:21:59.208Z,3.23
2019-02-24T09:24:28.489Z,3.87
2019-02-24T09:26:58.471Z,3.23
2019-02-24T09:29:27.758Z,3.53
2019-02-24T09:31:57.024Z,3.40
2019-02-24T09:34:26.331Z,3.00
2019-02-24T09:36:55.604Z,3.23
2019-02-24T09:39:25.748Z,3.13
2019-02-24T09:41:57.181Z,3.53
2019-02-24T09:44:28.582Z,3.23
2019-02-24T09:47:00.055Z,3.17
2019-02-24T09:49:31.420Z,3.70
2019-02-24T09:52:02.841Z,3.80
2019-02-24T09:54:34.263Z,3.57
2019-02-24T09:57:05.501Z,4.17
2019-02-24T09:59:35.591Z,3.37
2019-02-24T10:02:06.561Z,3.67
2019-02-24T10:04:38.607Z,3.40
2019-02-24T10:07:08.972Z,3.17
2019-02-24T10:09:39.507Z,3.37
2019-02-24T10:12:10.038Z,4.10
2019-02-24T10:14:39.507Z,3.87
2019-02-24T10:17:09.312Z,3.67
2019-02-24T10:19:38.596Z,3.40
2019-02-24T10:22:07.991Z,3.73
2019-02-24T10:24:37.297Z,3.23
2019-02-24T10:27:08.043Z,3.17
2019-02-24T10:29:37.424Z,3.23
2019-02-24T10:32:06.725Z,3.13
2019-02-24T10:34:37.442Z,3.63
2019-02-24T10:37:08.177Z,3.23
2019-02-24T10:39:37.449Z,3.40
2019-02-24T10:42:06.758Z,3.53
2019-02-24T10:44:36.021Z,3.67
2019-02-24T10:47:05.304Z,5.83
2019-02-24T10:49:34.575Z,3.63
2019-02-24T10:52:03.868Z,3.17
2019-02-24T10:54:33.144Z,3.63
2019-02-24T10:57:02.607Z,3.73
2019-02-24T10:59:31.893Z,3.37
2019-02-24T11:02:01.144Z,3.30
2019-02-24T11:04:30.790Z,5.83
2019-02-24T11:07:00.064Z,5.23
2019-02-24T11:09:29.394Z,7.67
2019-02-24T11:11:58.704Z,5.53
2019-02-24T11:14:27.959Z,5.23
2019-02-24T11:16:57.238Z,4.17
2019-02-24T11:19:26.476Z,4.30
2019-02-24T11:21:55.766Z,5.10
2019-02-24T11:24:25.076Z,11.10
2019-02-24T11:26:54.339Z,3.90
2019-02-24T11:29:23.834Z,3.63
2019-02-24T11:31:53.156Z,4.13
2019-02-24T11:34:22.447Z,3.57
2019-02-24T11:36:51.730Z,4.07
2019-02-24T11:39:21.044Z,4.33
2019-02-24T11:41:50.295Z,3.27
2019-02-24T11:44:19.582Z,3.43
2019-02-24T11:46:50.697Z,3.30
2019-02-24T11:49:19.962Z,3.17
2019-02-24T11:51:49.338Z,3.47
2019-02-24T11:54:18.590Z,3.90
2019-02-24T11:56:47.875Z,3.00
2019-02-24T11:59:17.152Z,4.07
2019-02-24T12:01:47.765Z,3.17
2019-02-24T12:04:17.348Z,3.47
2019-02-24T12:06:46.651Z,3.70
2019-02-24T12:09:15.988Z,3.83
2019-02-24T12:11:45.245Z,3.20
2019-02-24T12:14:14.536Z,2.90
2019-02-24T12:16:43.835Z,3.03
2019-02-24T12:19:13.150Z,3.53
2019-02-24T12:21:42.476Z,3.93
2019-02-24T12:24:11.783Z,3.40
2019-02-24T12:26:41.073Z,3.60
2019-02-24T12:29:10.462Z,3.53
2019-02-24T12:31:39.807Z,3.70
2019-02-24T12:34:09.158Z,3.10
2019-02-24T12:36:38.431Z,2.80
2019-02-24T12:39:08.956Z,2.60
2019-02-24T12:41:38.237Z,2.93
2019-02-24T12:44:07.538Z,3.00
2019-02-24T12:46:36.876Z,2.83
2019-02-24T12:49:07.615Z,2.70
2019-02-24T12:51:38.420Z,3.40
2019-02-24T12:54:07.697Z,2.77
2019-02-24T12:56:37.126Z,3.77
2019-02-24T12:59:06.388Z,3.00
2019-02-24T13:01:35.707Z,2.90
2019-02-24T13:04:05.081Z,2.57
2019-02-24T13:06:34.368Z,2.83
2019-02-24T13:09:03.861Z,3.03
2019-02-24T13:11:34.239Z,2.53
2019-02-24T13:14:03.633Z,2.93
2019-02-24T13:16:32.893Z,3.17
2019-02-24T13:19:02.361Z,2.70
2019-02-24T13:21:31.568Z,2.63
2019-02-24T13:24:00.827Z,2.50
2019-02-24T13:26:30.103Z,2.80
2019-02-24T13:28:59.357Z,3.10
2019-02-24T13:31:28.752Z,3.07
2019-02-24T13:33:58.049Z,3.20
2019-02-24T13:36:27.449Z,3.33
2019-02-24T13:38:58.393Z,3.00
2019-02-24T13:41:27.767Z,3.50
2019-02-24T13:43:57.276Z,3.53
2019-02-24T13:46:27.647Z,3.43
2019-02-24T13:48:57.001Z,3.50
2019-02-24T13:51:26.430Z,2.97
2019-02-24T13:53:55.741Z,2.73
2019-02-24T13:56:25.154Z,3.23
2019-02-24T13:58:56.516Z,2.47
2019-02-24T14:01:28.329Z,2.77
2019-02-24T14:03:58.965Z,3.00
2019-02-24T14:06:29.553Z,2.67
2019-02-24T14:08:58.883Z,3.23
2019-02-24T14:11:28.636Z,3.40
2019-02-24T14:13:57.901Z,3.50
2019-02-24T14:16:27.198Z,3.53
2019-02-24T14:18:56.488Z,3.43
2019-02-24T14:21:25.837Z,3.43
2019-02-24T14:23:55.158Z,3.17
2019-02-24T14:26:25.900Z,3.63
2019-02-24T14:28:55.156Z,4.10
2019-02-24T14:31:25.594Z,6.27
2019-02-24T14:33:54.884Z,4.00
2019-02-24T14:36:24.180Z,3.60
2019-02-24T14:38:53.435Z,3.13
2019-02-24T14:41:22.784Z,3.17
2019-02-24T14:43:52.038Z,3.33
2019-02-24T14:46:21.365Z,4.23
2019-02-24T14:48:50.691Z,3.03
2019-02-24T14:51:20.141Z,3.30
2019-02-24T14:53:49.439Z,3.17
2019-02-24T14:56:18.725Z,4.07
2019-02-24T14:58:48.096Z,3.10
2019-02-24T15:01:17.366Z,2.83
2019-02-24T15:03:46.734Z,3.60
2019-02-24T15:06:16.005Z,2.80
2019-02-24T15:08:45.427Z,2.27
2019-02-24T15:11:14.724Z,3.00
2019-02-24T15:13:44.038Z,2.20
2019-02-24T15:16:13.310Z,2.20
2019-02-24T15:18:42.580Z,2.40
2019-02-24T15:21:11.853Z,2.10
2019-02-24T15:23:41.130Z,2.17
2019-02-24T15:26:10.429Z,2.03
2019-02-24T15:28:41.497Z,1.93
2019-02-24T15:31:10.769Z,1.73
2019-02-24T15:33:40.527Z,1.90
2019-02-24T15:36:09.777Z,2.37
2019-02-24T15:38:39.065Z,2.27
2019-02-24T15:41:08.374Z,2.37
2019-02-24T15:43:37.760Z,2.10
2019-02-24T15:46:07.033Z,2.97
2019-02-24T15:48:36.332Z,2.23
2019-02-24T15:51:05.663Z,2.80
2019-02-24T15:53:34.923Z,3.03
2019-02-24T15:56:04.811Z,3.13
2019-02-24T15:58:34.064Z,2.40
2019-02-24T16:01:03.348Z,3.13
2019-02-24T16:03:32.627Z,3.53
2019-02-24T16:06:03.382Z,2.63
2019-02-24T16:08:32.637Z,2.37
2019-02-24T16:11:02.014Z,2.53
2019-02-24T16:13:31.354Z,2.43
2019-02-24T16:16:00.614Z,2.60
2019-02-24T16:18:29.900Z,2.60
2019-02-24T16:20:59.154Z,2.70
2019-02-24T16:23:28.425Z,2.87
2019-02-24T16:25:57.669Z,2.80
2019-02-24T16:28:27.400Z,2.87
2019-02-24T16:30:56.671Z,2.93
2019-02-24T16:33:25.953Z,2.60
2019-02-24T16:35:55.248Z,2.33
2019-02-24T16:38:24.553Z,3.00
2019-02-24T16:40:55.290Z,3.40
2019-02-24T16:43:24.763Z,2.70
2019-02-24T16:45:54.141Z,3.07
2019-02-24T16:48:23.383Z,3.00
2019-02-24T16:50:53.912Z,2.90
2019-02-24T16:53:23.222Z,3.07
2019-02-24T16:55:52.524Z,2.90
2019-02-24T16:58:21.890Z,3.00
2019-02-24T17:00:51.237Z,2.80
2019-02-24T17:03:20.598Z,2.97
2019-02-24T17:05:49.847Z,2.77
2019-02-24T17:08:19.185Z,2.97
2019-02-24T17:10:48.875Z,2.70
2019-02-24T17:13:18.531Z,5.80
2019-02-24T17:15:50.654Z,4.37
2019-02-24T17:18:21.426Z,6.47
2019-02-24T17:20:50.984Z,4.47
2019-02-24T17:23:20.245Z,3.60
2019-02-24T17:25:52.975Z,3.50
2019-02-24T17:28:22.117Z,4.00
2019-02-24T17:30:51.359Z,3.40
2019-02-24T17:33:29.486Z,3.50
2019-02-24T17:35:51.806Z,4.17
2019-02-24T17:38:22.505Z,3.27
2019-02-24T17:40:51.782Z,3.67
2019-02-24T17:43:22.521Z,3.90
2019-02-24T17:45:51.827Z,4.70
2019-02-24T17:48:22.555Z,5.30
2019-02-24T17:50:51.872Z,5.63
2019-02-24T17:53:21.203Z,6.33
2019-02-24T17:55:50.570Z,8.03
2019-02-24T17:58:24.635Z,10.60
2019-02-24T18:01:04.690Z,10.67
2019-02-24T18:03:39.450Z,8.70
2019-02-24T18:06:05.580Z,9.53
2019-02-24T18:08:34.833Z,8.47
2019-02-24T18:11:05.866Z,8.97
2019-02-24T18:13:35.196Z,9.77
2019-02-24T18:16:06.406Z,7.83
2019-02-24T18:18:35.739Z,9.53
2019-02-24T18:21:06.558Z,9.23
2019-02-24T18:23:36.171Z,11.70
2019-02-24T18:26:05.459Z,16.47
2019-02-24T18:28:34.737Z,24.07
2019-02-24T18:31:04.239Z,10.30
2019-02-24T18:33:33.520Z,9.23
2019-02-24T18:36:03.898Z,9.50
2019-02-24T18:38:34.620Z,8.50
2019-02-24T18:41:03.897Z,9.13
2019-02-24T18:43:33.172Z,9.00
2019-02-24T18:46:02.697Z,9.40
2019-02-24T18:48:32.052Z,8.00
2019-02-24T18:51:01.365Z,7.97
2019-02-24T18:53:30.622Z,8.63
2019-02-24T18:56:01.750Z,7.60
2019-02-24T18:58:31.126Z,7.47
2019-02-24T19:01:00.387Z,7.30
2019-02-24T19:03:29.756Z,8.07
2019-02-24T19:05:59.037Z,8.77
2019-02-24T19:08:28.304Z,8.40
2019-02-24T19:10:57.769Z,8.13
2019-02-24T19:13:27.312Z,7.50
2019-02-24T19:15:57.049Z,7.73
2019-02-24T19:18:27.231Z,7.57
2019-02-24T19:20:56.818Z,6.93
2019-02-24T19:23:26.550Z,6.23
2019-02-24T19:25:56.199Z,5.30
2019-02-24T19:28:25.568Z,5.33
2019-02-24T19:30:55.313Z,6.60
2019-02-24T19:33:25.108Z,6.63
2019-02-24T19:35:54.757Z,5.87
2019-02-24T19:38:24.595Z,7.40
2019-02-24T19:40:54.319Z,6.97
2019-02-24T19:43:23.809Z,6.70
2019-02-24T19:45:53.244Z,6.97
2019-02-24T19:48:22.865Z,7.47
2019-02-24T19:50:52.386Z,5.97
2019-02-24T19:53:22.016Z,7.37
2019-02-24T19:55:51.474Z,6.37
2019-02-24T19:58:21.083Z,6.17
2019-02-24T20:00:50.462Z,5.67
2019-02-24T20:03:20.210Z,5.57
2019-02-24T20:05:50.128Z,6.13
2019-02-24T20:08:19.757Z,5.43
2019-02-24T20:10:49.405Z,5.53
2019-02-24T20:13:19.435Z,9.20
2019-02-24T20:15:48.984Z,13.23
2019-02-24T20:18:18.748Z,9.33
2019-02-24T20:20:48.339Z,6.23
2019-02-24T20:23:18.017Z,5.77
2019-02-24T20:25:47.314Z,5.83
2019-02-24T20:28:16.938Z,6.33
2019-02-24T20:30:46.502Z,6.10
2019-02-24T20:33:16.125Z,6.03
2019-02-24T20:35:45.626Z,6.70
2019-02-24T20:38:15.127Z,5.87
2019-02-24T20:40:44.811Z,5.97
2019-02-24T20:43:14.589Z,5.83
2019-02-24T20:45:44.007Z,6.13
2019-02-24T20:48:13.372Z,5.93
2019-02-24T20:50:42.727Z,6.07
2019-02-24T20:53:12.020Z,6.60
2019-02-24T20:55:41.320Z,5.90
2019-02-24T20:58:10.619Z,6.13
2019-02-24T21:00:41.090Z,5.93
2019-02-24T21:03:10.375Z,6.57
2019-02-24T21:05:39.657Z,6.53
2019-02-24T21:08:08.929Z,6.50
2019-02-24T21:10:38.246Z,6.23
2019-02-24T21:13:07.530Z,6.33
2019-02-24T21:15:37.211Z,6.30
2019-02-24T21:18:06.694Z,6.30
2019-02-24T21:20:35.992Z,6.53
2019-02-24T21:23:05.402Z,6.40
2019-02-24T21:25:34.697Z,6.37
2019-02-24T21:28:05.134Z,6.67
2019-02-24T21:30:34.516Z,6.87
2019-02-24T21:33:03.847Z,6.40
2019-02-24T21:35:33.204Z,7.10
2019-02-24T21:38:02.577Z,7.60
2019-02-24T21:40:32.018Z,6.17
2019-02-24T21:43:01.295Z,6.57
2019-02-24T21:45:30.775Z,6.57
2019-02-24T21:48:00.213Z,5.07
2019-02-24T21:50:29.598Z,6.23
2019-02-24T21:52:58.907Z,6.03
2019-02-24T21:55:28.513Z,5.83
2019-02-24T21:57:57.838Z,5.83
2019-02-24T22:00:27.424Z,6.17
2019-02-24T22:02:56.715Z,5.57
2019-02-24T22:05:26.115Z,5.67
2019-02-24T22:07:55.820Z,6.13
2019-02-24T22:10:25.263Z,6.40
2019-02-24T22:12:54.656Z,5.87
2019-02-24T22:15:24.110Z,6.57
2019-02-24T22:17:53.772Z,5.47
2019-02-24T22:20:23.158Z,6.03
2019-02-24T22:22:52.680Z,6.03
2019-02-24T22:25:22.018Z,5.87
2019-02-24T22:27:51.323Z,5.87
2019-02-24T22:30:20.588Z,5.83
2019-02-24T22:32:49.983Z,5.83
2019-02-24T22:35:19.488Z,5.90
2019-02-24T22:37:48.900Z,5.93
2019-02-24T22:40:18.266Z,6.57
2019-02-24T22:42:47.562Z,6.27
2019-02-24T22:45:17.356Z,6.40
2019-02-24T22:47:46.886Z,6.70
2019-02-24T22:50:16.558Z,6.77
2019-02-24T22:52:46.103Z,6.63
2019-02-24T22:55:16.207Z,6.60
2019-02-24T22:57:45.571Z,6.63
2019-02-24T23:00:55.057Z,6.67
2019-02-24T23:03:26.384Z,6.17
2019-02-24T23:05:56.330Z,6.43
2019-02-24T23:08:25.823Z,6.87
2019-02-24T23:10:55.275Z,6.90
2019-02-24T23:13:24.954Z,6.70
2019-02-24T23:15:54.505Z,6.27
2019-02-24T23:18:23.940Z,6.67
2019-02-24T23:20:53.596Z,6.40
2019-02-24T23:23:23.210Z,6.67
2019-02-24T23:25:52.989Z,6.57
2019-02-24T23:28:24.143Z,7.13
2019-02-24T23:30:53.609Z,7.07
2019-02-24T23:33:23.502Z,6.33
2019-02-24T23:35:52.841Z,6.57
2019-02-24T23:38:22.704Z,6.73
2019-02-24T23:40:52.358Z,7.10
2019-02-24T23:43:21.988Z,6.53
2019-02-24T23:45:51.739Z,6.93
2019-02-24T23:48:21.297Z,6.73
2019-02-24T23:50:50.905Z,5.50
2019-02-24T23:53:20.642Z,5.70
2019-02-24T23:55:49.936Z,5.87
2019-02-24T23:58:19.233Z,5.40
